createdAt,value
2023-01-04T00:01:15.564Z,81.51
2023-01-04T00:03:47.972Z,83.65
2023-01-04T00:06:16.233Z,80.85
2023-01-04T00:08:45.986Z,80.49
2023-01-04T00:11:14.698Z,76.13
2023-01-04T00:13:41.777Z,74.32
2023-01-04T00:16:14.312Z,78.55
2023-01-04T00:18:43.179Z,77.37
2023-01-04T00:21:14.776Z,78.25
2023-01-04T00:23:46.409Z,74.46
2023-01-04T00:26:14.850Z,72.95
2023-01-04T00:28:50.012Z,71.89
2023-01-04T00:31:20.964Z,75.08
2023-01-04T00:33:48.130Z,76.21
2023-01-04T00:36:17.913Z,77.20
2023-01-04T00:38:45.007Z,77.57
2023-01-04T00:41:41.919Z,74.68
2023-01-04T00:44:07.504Z,74.46
2023-01-04T00:46:36.852Z,77.14
2023-01-04T00:49:04.694Z,73.16
2023-01-04T00:51:32.342Z,72.16
2023-01-04T00:54:00.570Z,71.39
2023-01-04T00:56:30.818Z,70.44
2023-01-04T00:58:58.132Z,73.69
2023-01-04T01:01:25.512Z,77.22
2023-01-04T01:03:56.725Z,80.30
2023-01-04T01:06:26.640Z,81.82
2023-01-04T01:08:58.993Z,82.96
2023-01-04T01:11:26.188Z,84.63
2023-01-04T01:13:58.040Z,81.43
2023-01-04T01:16:51.899Z,77.88
2023-01-04T01:19:12.130Z,78.70
2023-01-04T01:21:39.550Z,80.53
2023-01-04T01:24:07.245Z,78.76
2023-01-04T01:26:34.372Z,76.18
2023-01-04T01:29:03.965Z,81.46
2023-01-04T01:31:30.965Z,83.39
2023-01-04T01:33:58.041Z,84.96
2023-01-04T01:36:30.992Z,84.97
2023-01-04T01:38:59.051Z,84.06
2023-01-04T01:41:27.800Z,83.97
2023-01-04T01:44:27.480Z,86.37
2023-01-04T01:46:55.544Z,84.60
2023-01-04T01:49:37.449Z,85.64
2023-01-04T01:52:31.281Z,85.53
2023-01-04T01:55:06.742Z,84.42
2023-01-04T01:57:34.802Z,84.19
2023-01-04T02:00:11.975Z,84.28
2023-01-04T02:02:45.693Z,85.30
2023-01-04T02:05:12.889Z,83.03
2023-01-04T02:07:39.846Z,82.17
2023-01-04T02:10:09.734Z,81.09
2023-01-04T02:12:36.932Z,85.30
2023-01-04T02:15:06.771Z,82.50
2023-01-04T02:17:41.755Z,81.65
2023-01-04T02:20:40.571Z,84.29
2023-01-04T02:23:11.146Z,82.29
2023-01-04T02:25:58.061Z,79.67
2023-01-04T02:28:44.111Z,78.02
2023-01-04T02:31:41.649Z,83.20
2023-01-04T02:34:27.197Z,81.75
2023-01-04T02:37:00.320Z,77.50
2023-01-04T02:39:48.062Z,78.46
2023-01-04T02:42:38.779Z,76.79
2023-01-04T02:45:08.588Z,76.49
2023-01-04T02:47:36.594Z,74.16
2023-01-04T02:50:06.061Z,73.16
2023-01-04T02:52:34.011Z,73.53
2023-01-04T02:55:01.094Z,78.08
2023-01-04T02:57:49.003Z,75.73
2023-01-04T03:00:30.985Z,79.77
2023-01-04T03:03:11.480Z,79.74
2023-01-04T03:06:02.981Z,77.47
2023-01-04T03:08:49.982Z,77.59
2023-01-04T03:11:21.699Z,81.67
2023-01-04T03:13:49.186Z,84.85
2023-01-04T03:16:18.673Z,85.13
2023-01-04T03:18:48.269Z,86.83
2023-01-04T03:21:15.494Z,88.14
2023-01-04T03:23:45.209Z,87.76
2023-01-04T03:26:20.620Z,86.87
2023-01-04T03:28:47.619Z,84.53
2023-01-04T03:31:39.359Z,83.78
2023-01-04T03:34:06.343Z,85.67
2023-01-04T03:37:11.432Z,86.97
2023-01-04T03:40:21.816Z,86.04
2023-01-04T03:43:13.672Z,87.39
2023-01-04T03:45:50.125Z,87.45
2023-01-04T03:48:22.951Z,88.19
2023-01-04T03:51:02.911Z,86.59
2023-01-04T03:53:39.569Z,88.00
2023-01-04T03:56:07.799Z,87.74
2023-01-04T03:58:34.957Z,86.51
2023-01-04T04:01:06.937Z,82.88
2023-01-04T04:03:36.706Z,84.73
2023-01-04T04:06:04.235Z,84.25
2023-01-04T04:08:33.329Z,84.15
2023-01-04T04:11:01.811Z,85.21
2023-01-04T04:13:28.853Z,84.35
2023-01-04T04:15:56.720Z,81.95
2023-01-04T04:18:26.745Z,81.87
2023-01-04T04:20:59.882Z,79.40
2023-01-04T04:23:29.642Z,79.57
2023-01-04T04:25:56.701Z,79.26
2023-01-04T04:28:29.351Z,78.57
2023-01-04T04:30:56.455Z,76.32
2023-01-04T04:33:23.422Z,80.25
2023-01-04T04:35:51.609Z,79.32
2023-01-04T04:38:18.472Z,81.27
2023-01-04T04:40:51.306Z,81.17
2023-01-04T04:43:18.769Z,80.00
2023-01-04T04:45:45.811Z,79.19
2023-01-04T04:48:12.867Z,82.42
2023-01-04T04:50:40.065Z,81.56
2023-01-04T04:53:09.757Z,78.70
2023-01-04T04:55:39.456Z,77.69
2023-01-04T04:58:06.507Z,83.61
2023-01-04T05:00:33.508Z,84.78
2023-01-04T05:03:01.331Z,83.44
2023-01-04T05:05:28.620Z,84.02
2023-01-04T05:07:58.441Z,85.46
2023-01-04T05:10:33.560Z,85.06
2023-01-04T05:13:03.294Z,84.56
2023-01-04T05:15:38.050Z,83.86
2023-01-04T05:18:05.388Z,85.78
2023-01-04T05:20:34.300Z,82.96
2023-01-04T05:23:01.399Z,83.99
2023-01-04T05:25:28.562Z,81.21
2023-01-04T05:27:56.443Z,78.91
2023-01-04T05:30:27.935Z,78.69
2023-01-04T05:32:54.996Z,76.27
2023-01-04T05:35:26.862Z,76.09
2023-01-04T05:37:56.689Z,78.56
2023-01-04T05:40:24.172Z,75.74
2023-01-04T05:42:51.146Z,75.50
2023-01-04T05:45:24.025Z,75.70
2023-01-04T05:47:51.874Z,74.58
2023-01-04T05:50:20.209Z,76.48
2023-01-04T05:52:47.301Z,74.66
2023-01-04T05:55:14.759Z,74.12
2023-01-04T05:57:45.683Z,77.10
2023-01-04T06:00:18.590Z,79.74
2023-01-04T06:02:45.806Z,79.50
2023-01-04T06:05:15.203Z,77.39
2023-01-04T06:07:42.281Z,77.43
2023-01-04T06:10:15.129Z,76.19
2023-01-04T06:12:45.736Z,75.29
2023-01-04T06:15:12.833Z,75.70
2023-01-04T06:17:47.730Z,76.80
2023-01-04T06:20:15.254Z,75.26
2023-01-04T06:22:45.076Z,75.16
2023-01-04T06:25:14.396Z,76.05
2023-01-04T06:27:48.229Z,76.23
2023-01-04T06:30:20.925Z,76.26
2023-01-04T06:32:49.030Z,75.66
2023-01-04T06:35:16.786Z,76.32
2023-01-04T06:37:49.618Z,75.82
2023-01-04T06:40:16.768Z,73.57
2023-01-04T06:42:43.724Z,73.12
2023-01-04T06:45:12.299Z,74.83
2023-01-04T06:47:42.962Z,76.91
2023-01-04T06:50:10.396Z,74.92
2023-01-04T06:52:37.496Z,73.31
2023-01-04T06:55:06.120Z,71.98
2023-01-04T06:57:36.595Z,70.90
2023-01-04T07:00:09.827Z,71.42
2023-01-04T07:02:36.688Z,71.84
2023-01-04T07:05:04.977Z,72.25
2023-01-04T07:07:32.910Z,74.61
2023-01-04T07:10:03.897Z,73.10
2023-01-04T07:12:38.709Z,74.62
2023-01-04T07:15:38.089Z,77.39
2023-01-04T07:17:53.410Z,74.88
2023-01-04T07:20:20.540Z,73.68
2023-01-04T07:22:47.608Z,74.74
2023-01-04T07:25:14.303Z,73.38
2023-01-04T07:27:44.004Z,73.31
2023-01-04T07:30:12.773Z,72.20
2023-01-04T07:32:39.567Z,70.89
2023-01-04T07:35:07.041Z,70.55
2023-01-04T07:37:33.906Z,70.37
2023-01-04T07:40:03.570Z,73.59
2023-01-04T07:42:31.332Z,74.08
2023-01-04T07:45:00.889Z,74.04
2023-01-04T07:47:28.553Z,73.97
2023-01-04T07:49:55.266Z,73.56
2023-01-04T07:52:22.461Z,74.69
2023-01-04T07:54:50.381Z,73.82
2023-01-04T07:57:17.469Z,77.33
2023-01-04T07:59:44.247Z,77.11
2023-01-04T08:02:12.231Z,76.37
2023-01-04T08:04:39.540Z,74.56
2023-01-04T08:07:06.370Z,73.18
2023-01-04T08:09:33.484Z,74.22
2023-01-04T08:12:00.643Z,74.71
2023-01-04T08:14:27.678Z,74.05
2023-01-04T08:16:54.761Z,76.65
2023-01-04T08:19:21.637Z,78.74
2023-01-04T08:21:48.550Z,78.60
2023-01-04T08:24:16.890Z,80.54
2023-01-04T08:26:48.726Z,80.15
2023-01-04T08:29:17.777Z,78.84
2023-01-04T08:31:44.980Z,77.81
2023-01-04T08:34:12.121Z,76.86
2023-01-04T08:36:52.726Z,75.47
2023-01-04T08:39:20.943Z,75.54
2023-01-04T08:42:06.861Z,77.18
2023-01-04T08:44:39.614Z,78.05
2023-01-04T08:47:06.907Z,77.06
2023-01-04T08:49:35.530Z,76.35
2023-01-04T08:52:02.652Z,74.53
2023-01-04T08:54:34.351Z,74.17
2023-01-04T08:57:01.044Z,74.54
2023-01-04T08:59:32.977Z,74.32
2023-01-04T09:02:05.148Z,76.02
2023-01-04T09:04:33.072Z,77.32
2023-01-04T09:12:24.651Z,79.02
2023-01-04T09:14:51.652Z,77.61
2023-01-04T09:17:46.528Z,76.81
2023-01-04T09:20:23.670Z,77.30
2023-01-04T09:22:50.732Z,77.05
2023-01-04T09:25:18.635Z,77.22
2023-01-04T09:27:45.436Z,77.85
2023-01-04T09:30:12.642Z,76.56
2023-01-04T09:32:39.640Z,75.24
2023-01-04T09:35:08.023Z,74.86
2023-01-04T09:37:35.088Z,76.11
2023-01-04T09:40:01.864Z,74.11
2023-01-04T09:42:37.491Z,74.95
2023-01-04T09:45:25.753Z,74.92
2023-01-04T09:47:58.073Z,75.97
2023-01-04T09:50:27.620Z,75.76
2023-01-04T09:53:03.501Z,73.99
2023-01-04T09:55:49.098Z,74.85
2023-01-04T09:58:16.673Z,73.86
2023-01-04T10:01:05.998Z,72.88
2023-01-04T10:03:40.366Z,73.20
2023-01-04T10:06:10.075Z,72.85
2023-01-04T10:08:37.559Z,74.76
2023-01-04T10:11:25.875Z,75.51
2023-01-04T10:13:56.863Z,76.11
2023-01-04T10:17:20.273Z,75.76
2023-01-04T10:23:43.266Z,73.13
2023-01-04T10:26:31.909Z,69.05
2023-01-04T10:32:22.940Z,70.33
2023-01-04T10:34:52.388Z,70.24
2023-01-04T10:37:31.584Z,68.23
2023-01-04T10:39:58.478Z,70.75
2023-01-04T10:42:39.331Z,69.97
2023-01-04T10:45:17.847Z,72.46
2023-01-04T10:48:24.636Z,75.29
2023-01-04T10:51:03.561Z,73.44
2023-01-04T10:53:51.146Z,70.99
2023-01-04T10:56:38.368Z,69.38
2023-01-04T10:59:44.298Z,71.95
2023-01-04T11:02:27.193Z,70.00
2023-01-04T11:05:04.748Z,69.73
2023-01-04T11:07:41.783Z,68.82
2023-01-04T11:10:12.904Z,67.09
2023-01-04T11:12:39.768Z,69.06
2023-01-04T11:15:08.040Z,68.97
2023-01-04T11:17:35.663Z,67.12
2023-01-04T11:20:02.844Z,67.88
2023-01-04T11:22:51.479Z,66.11
2023-01-04T11:25:36.194Z,66.41
2023-01-04T11:28:09.240Z,66.18
2023-01-04T11:30:51.296Z,67.06
2023-01-04T11:33:19.659Z,66.54
2023-01-04T11:35:49.252Z,66.11
2023-01-04T11:38:23.545Z,63.68
2023-01-04T11:41:08.107Z,66.37
2023-01-04T11:43:36.521Z,67.75
2023-01-04T11:46:07.210Z,65.66
2023-01-04T11:48:47.239Z,64.80
2023-01-04T11:51:30.048Z,64.09
2023-01-04T11:53:59.398Z,66.31
2023-01-04T11:56:31.686Z,67.28
2023-01-04T11:59:22.615Z,66.55
2023-01-04T12:02:58.649Z,69.60
2023-01-04T12:05:28.768Z,67.57
2023-01-04T12:07:58.387Z,66.90
2023-01-04T12:10:52.974Z,67.69
2023-01-04T12:13:22.493Z,67.55
2023-01-04T12:16:05.190Z,68.14
2023-01-04T12:18:43.621Z,68.30
2023-01-04T12:21:24.884Z,66.56
2023-01-04T12:23:54.228Z,68.18
2023-01-04T12:26:22.104Z,65.72
2023-01-04T12:28:50.733Z,64.91
2023-01-04T12:31:21.791Z,66.86
2023-01-04T12:33:50.428Z,66.69
2023-01-04T12:36:21.329Z,65.31
2023-01-04T12:39:04.449Z,66.65
2023-01-04T12:41:49.673Z,66.13
2023-01-04T12:44:39.188Z,66.02
2023-01-04T12:47:39.855Z,64.98
2023-01-04T12:50:20.508Z,63.83
2023-01-04T12:53:29.904Z,65.74
2023-01-04T12:55:53.121Z,66.41
2023-01-04T12:58:51.154Z,65.81
2023-01-04T13:01:29.443Z,66.79
2023-01-04T13:04:05.555Z,66.12
2023-01-04T13:06:38.113Z,67.38
2023-01-04T13:09:16.127Z,66.72
2023-01-04T13:12:03.773Z,64.21
2023-01-04T13:14:37.002Z,64.46
2023-01-04T13:17:23.279Z,65.09
2023-01-04T13:19:50.262Z,63.76
2023-01-04T13:22:51.082Z,64.13
2023-01-04T13:25:18.213Z,64.86
2023-01-04T13:28:02.177Z,65.05
2023-01-04T13:30:37.343Z,63.86
2023-01-04T13:33:26.161Z,63.57
2023-01-04T13:36:05.355Z,63.86
2023-01-04T13:38:32.204Z,67.19
2023-01-04T13:41:00.426Z,65.98
2023-01-04T13:43:41.869Z,65.24
2023-01-04T13:46:22.143Z,62.45
2023-01-04T13:48:52.968Z,62.98
2023-01-04T13:51:30.610Z,64.95
2023-01-04T13:54:16.341Z,63.32
2023-01-04T13:56:55.199Z,65.19
2023-01-04T13:59:34.429Z,65.36
2023-01-04T14:02:18.515Z,65.09
2023-01-04T14:04:46.650Z,64.30
2023-01-04T14:07:21.254Z,66.11
2023-01-04T14:09:53.731Z,66.05
2023-01-04T14:12:45.387Z,66.54
2023-01-04T14:15:55.055Z,64.79
2023-01-04T14:18:26.995Z,64.70
2023-01-04T14:20:54.813Z,65.05
2023-01-04T14:23:35.934Z,66.92
2023-01-04T14:26:08.094Z,69.07
2023-01-04T14:28:37.474Z,68.47
2023-01-04T14:31:09.576Z,70.75
2023-01-04T14:33:46.155Z,71.15
2023-01-04T14:36:21.729Z,71.51
2023-01-04T14:39:09.973Z,70.77
2023-01-04T14:41:48.870Z,71.20
2023-01-04T14:44:23.160Z,70.97
2023-01-04T14:46:58.213Z,69.36
2023-01-04T14:49:25.226Z,67.75
2023-01-04T14:51:54.001Z,66.22
2023-01-04T14:54:24.935Z,66.68
2023-01-04T14:57:11.990Z,65.67
2023-01-04T15:05:03.275Z,65.59
2023-01-04T15:07:41.905Z,66.13
2023-01-04T15:10:19.252Z,66.21
2023-01-04T15:12:47.426Z,66.23
2023-01-04T15:15:17.203Z,66.46
2023-01-04T15:18:02.831Z,64.95
2023-01-04T15:20:33.337Z,65.35
2023-01-04T15:23:03.812Z,70.13
2023-01-04T15:25:42.471Z,68.36
2023-01-04T15:28:12.961Z,67.25
2023-01-04T15:30:44.183Z,65.49
2023-01-04T15:33:16.568Z,64.11
2023-01-04T15:35:44.359Z,64.28
2023-01-04T15:38:16.120Z,65.15
2023-01-04T15:40:45.845Z,65.83
2023-01-04T15:43:17.386Z,67.74
2023-01-04T15:45:45.930Z,68.57
2023-01-04T15:48:13.945Z,67.14
2023-01-04T15:53:30.345Z,69.32
2023-01-04T15:56:04.880Z,68.08
2023-01-04T15:58:39.694Z,67.08
2023-01-04T16:01:12.472Z,68.08
2023-01-04T16:06:23.482Z,69.71
2023-01-04T16:08:50.507Z,71.56
2023-01-04T16:11:25.115Z,70.69
2023-01-04T16:13:53.812Z,70.55
2023-01-04T16:16:38.163Z,70.22
2023-01-04T16:19:05.174Z,73.49
2023-01-04T16:21:36.271Z,70.02
2023-01-04T16:24:09.488Z,68.77
2023-01-04T16:26:43.162Z,71.09
2023-01-04T16:29:16.994Z,70.69
2023-01-04T16:31:46.742Z,67.88
2023-01-04T16:34:16.952Z,70.34
2023-01-04T16:36:43.882Z,70.33
2023-01-04T16:39:13.533Z,70.77
2023-01-04T16:41:41.414Z,69.44
2023-01-04T16:44:12.081Z,71.45
2023-01-04T16:46:42.833Z,72.62
2023-01-04T16:49:16.267Z,72.09
2023-01-04T16:51:44.877Z,70.77
2023-01-04T16:57:02.507Z,74.28
2023-01-04T16:59:36.153Z,73.39
2023-01-04T17:02:03.260Z,71.80
2023-01-04T17:04:32.716Z,70.51
2023-01-04T17:06:59.898Z,71.06
2023-01-04T17:09:33.997Z,70.40
2023-01-04T17:15:00.801Z,70.08
2023-01-04T17:17:41.688Z,69.74
2023-01-04T17:20:13.879Z,70.78
2023-01-04T17:22:41.908Z,69.05
2023-01-04T17:25:08.672Z,71.08
2023-01-04T17:27:38.222Z,73.09
2023-01-04T17:30:08.697Z,74.34
2023-01-04T17:32:35.468Z,71.62
2023-01-04T17:35:02.926Z,69.74
2023-01-04T17:37:30.321Z,68.61
2023-01-04T17:40:02.133Z,66.98
2023-01-04T17:42:28.897Z,68.32
2023-01-04T17:45:01.614Z,71.23
2023-01-04T17:47:30.697Z,70.53
2023-01-04T17:49:58.661Z,72.04
2023-01-04T17:52:31.182Z,72.91
2023-01-04T17:55:01.327Z,72.07
2023-01-04T17:57:30.834Z,70.92
2023-01-04T17:59:58.459Z,72.87
2023-01-04T18:02:25.483Z,73.16
2023-01-04T18:04:52.564Z,72.63
2023-01-04T18:07:20.096Z,71.08
2023-01-04T18:09:49.219Z,69.94
2023-01-04T18:12:21.675Z,73.18
2023-01-04T18:14:48.801Z,70.83
2023-01-04T18:17:15.899Z,72.21
2023-01-04T18:19:46.252Z,71.40
2023-01-04T18:22:13.498Z,71.23
2023-01-04T18:24:43.129Z,71.51
2023-01-04T18:27:26.738Z,69.41
2023-01-04T18:29:55.688Z,68.86
2023-01-04T18:32:23.084Z,68.91
2023-01-04T18:34:54.025Z,68.02
2023-01-04T18:40:02.664Z,70.17
2023-01-04T18:42:30.111Z,70.30
2023-01-04T18:44:59.680Z,69.65
2023-01-04T18:47:26.702Z,67.86
2023-01-04T18:49:54.192Z,68.14
2023-01-04T18:52:21.058Z,72.28
2023-01-04T18:54:49.116Z,70.26
2023-01-04T18:57:16.327Z,72.26
2023-01-04T18:59:46.066Z,71.92
2023-01-04T19:02:16.966Z,72.36
2023-01-04T19:04:50.007Z,70.06
2023-01-04T19:07:17.065Z,72.80
2023-01-04T19:09:44.280Z,71.13
2023-01-04T19:12:12.456Z,72.70
2023-01-04T19:14:39.519Z,72.71
2023-01-04T19:17:06.648Z,72.41
2023-01-04T19:19:37.679Z,71.08
2023-01-04T19:22:04.685Z,69.92
2023-01-04T19:24:34.527Z,70.36
2023-01-04T19:27:01.649Z,68.06
2023-01-04T19:29:30.115Z,68.10
2023-01-04T19:31:57.612Z,69.62
2023-01-04T19:34:27.564Z,69.08
2023-01-04T19:36:54.508Z,70.07
2023-01-04T19:39:24.317Z,71.01
2023-01-04T19:41:51.046Z,74.10
2023-01-04T19:44:20.742Z,71.46
2023-01-04T19:46:49.100Z,69.49
2023-01-04T19:49:16.089Z,68.51
2023-01-04T19:51:43.396Z,71.92
2023-01-04T19:54:10.667Z,70.61
2023-01-04T19:56:37.432Z,71.50
2023-01-04T19:59:05.300Z,71.71
2023-01-04T20:01:38.282Z,70.71
2023-01-04T20:04:06.325Z,70.63
2023-01-04T20:06:33.445Z,68.81
2023-01-04T20:09:00.511Z,69.70
2023-01-04T20:11:27.259Z,68.99
2023-01-04T20:13:54.972Z,68.39
2023-01-04T20:16:22.418Z,70.17
2023-01-04T20:18:55.053Z,70.44
2023-01-04T20:21:23.783Z,70.72
2023-01-04T20:23:51.196Z,71.28
2023-01-04T20:26:24.105Z,71.89
2023-01-04T20:28:53.072Z,72.64
2023-01-04T20:31:22.826Z,72.63
2023-01-04T20:33:52.545Z,74.00
2023-01-04T20:36:30.498Z,74.99
2023-01-04T20:38:58.424Z,74.21
2023-01-04T20:41:28.202Z,72.74
2023-01-04T20:43:57.982Z,72.69
2023-01-04T20:46:26.609Z,71.59
2023-01-04T20:48:54.175Z,71.06
2023-01-04T20:51:26.325Z,70.49
2023-01-04T20:53:53.532Z,70.90
2023-01-04T20:56:24.867Z,68.94
2023-01-04T20:58:53.114Z,68.81
2023-01-04T21:01:21.285Z,71.90
2023-01-04T21:03:48.282Z,68.30
2023-01-04T21:06:18.077Z,70.97
2023-01-04T21:08:47.826Z,71.33
2023-01-04T21:11:14.622Z,69.77
2023-01-04T21:13:44.550Z,70.75
2023-01-04T21:16:11.662Z,71.01
2023-01-04T21:18:38.741Z,70.97
2023-01-04T21:21:15.914Z,71.52
2023-01-04T21:23:43.583Z,72.36
2023-01-04T21:26:21.977Z,72.75
2023-01-04T21:28:49.763Z,71.63
2023-01-04T21:31:21.775Z,72.19
2023-01-04T21:33:52.093Z,70.66
2023-01-04T21:36:20.985Z,71.74
2023-01-04T21:38:51.072Z,70.48
2023-01-04T21:41:18.388Z,71.12
2023-01-04T21:43:48.044Z,71.41
2023-01-04T21:46:22.548Z,70.89
2023-01-04T21:48:56.341Z,72.08
2023-01-04T21:51:25.307Z,76.08
2023-01-04T21:53:52.439Z,75.70
2023-01-04T21:56:20.496Z,76.09
2023-01-04T21:58:53.329Z,77.80
2023-01-04T22:01:32.410Z,73.86
2023-01-04T22:04:01.487Z,72.81
2023-01-04T22:06:28.264Z,71.55
2023-01-04T22:08:56.236Z,72.19
2023-01-04T22:11:23.197Z,73.87
2023-01-04T22:13:56.167Z,73.11
2023-01-04T22:16:25.971Z,75.23
2023-01-04T22:18:55.520Z,76.87
2023-01-04T22:21:27.808Z,76.73
2023-01-04T22:24:01.107Z,75.61
2023-01-04T22:26:28.557Z,75.02
2023-01-04T22:28:58.288Z,75.85
2023-01-04T22:31:25.328Z,74.23
2023-01-04T22:33:52.924Z,75.70
2023-01-04T22:36:23.339Z,77.72
2023-01-04T22:38:57.687Z,77.64
2023-01-04T22:41:26.587Z,79.40
2023-01-04T22:44:00.349Z,78.91
2023-01-04T22:46:36.218Z,80.48
2023-01-04T22:49:04.015Z,77.00
2023-01-04T22:51:31.465Z,78.11
2023-01-04T22:53:59.950Z,78.20
2023-01-04T22:56:27.189Z,79.16
2023-01-04T22:58:57.401Z,76.17
2023-01-04T23:01:29.094Z,77.14
2023-01-04T23:03:56.716Z,78.26
2023-01-04T23:06:24.514Z,78.45
2023-01-04T23:08:59.432Z,77.99
2023-01-04T23:11:29.493Z,78.72
2023-01-04T23:13:56.636Z,76.69
2023-01-04T23:16:31.936Z,77.17
2023-01-04T23:19:00.521Z,79.81
2023-01-04T23:21:28.464Z,80.08
2023-01-04T23:23:58.594Z,75.95
2023-01-04T23:26:26.137Z,74.59
2023-01-04T23:28:53.175Z,75.71
2023-01-04T23:31:22.404Z,77.67
2023-01-04T23:33:56.643Z,76.95
2023-01-04T23:36:28.676Z,79.40
2023-01-04T23:38:59.456Z,81.15
2023-01-04T23:41:29.154Z,81.84
2023-01-04T23:43:56.675Z,79.64
2023-01-04T23:46:23.575Z,79.60
2023-01-04T23:48:55.585Z,77.91
2023-01-04T23:51:23.387Z,81.98
2023-01-04T23:53:50.065Z,81.31
2023-01-04T23:56:16.758Z,83.17
2023-01-04T23:58:44.663Z,81.48
